Time;durP1;ratioP1;P1;durP2;ratioP2;P2;SDS_P1;SDS_P2;PMS_P1;PMS_P2;Temp;Humidity;BMP_temperature;BMP_pressure;BME280_temperature;BME280_humidity;BME280_pressure;Samples;Min_cycle;Max_cycle;Signal;HPM_P1;HPM_P2
2022/10/01 00:01:05;;;;;;;9.32;6.93;;;11.90;99.90;;;;;;5061305;28;20091;-74
2022/10/01 00:03:31;;;;;;;10.63;7.18;;;11.80;99.90;;;;;;5028349;28;20040;-74
2022/10/01 00:06:21;;;;;;;9.10;7.03;;;11.70;99.90;;;;;;5052986;28;20033;-74
2022/10/01 00:08:48;;;;;;;9.68;7.05;;;11.80;99.90;;;;;;5029485;28;20052;-74
2022/10/01 00:11:18;;;;;;;9.00;6.97;;;11.80;99.90;;;;;;5052188;28;20127;-74
2022/10/01 00:13:45;;;;;;;8.45;7.00;;;11.80;99.90;;;;;;5051090;28;20041;-73
2022/10/01 00:16:16;;;;;;;10.77;7.47;;;11.80;99.90;;;;;;5059105;28;20056;-74
2022/10/01 00:18:44;;;;;;;9.50;7.22;;;11.70;99.90;;;;;;5078871;28;20044;-74
2022/10/01 00:21:16;;;;;;;9.98;7.85;;;11.70;99.90;;;;;;5036180;28;20044;-74
2022/10/01 00:23:42;;;;;;;9.40;7.40;;;11.70;99.90;;;;;;5053205;28;20047;-74
2022/10/01 00:26:12;;;;;;;10.02;7.40;;;11.70;99.90;;;;;;5015194;28;20061;-74
2022/10/01 00:28:39;;;;;;;11.30;7.22;;;11.70;99.90;;;;;;5015222;28;20699;-73
2022/10/01 00:31:08;;;;;;;9.95;7.22;;;11.60;99.90;;;;;;5015441;28;20045;-74
2022/10/01 00:33:35;;;;;;;11.18;7.38;;;11.60;99.90;;;;;;5018420;28;20095;-75
2022/10/01 00:36:02;;;;;;;13.10;7.85;;;11.60;99.90;;;;;;5012686;28;20033;-73
2022/10/01 00:38:28;;;;;;;11.38;8.00;;;11.60;99.90;;;;;;5026050;28;20034;-73
2022/10/01 00:40:54;;;;;;;9.73;7.70;;;11.60;99.90;;;;;;5011573;28;20045;-74
2022/10/01 00:43:30;;;;;;;11.82;7.47;;;11.60;99.90;;;;;;5018789;28;20407;-74
2022/10/01 00:46:01;;;;;;;9.93;7.47;;;11.60;99.90;;;;;;5015999;28;20041;-74
2022/10/01 00:48:29;;;;;;;9.50;7.68;;;11.60;99.90;;;;;;5015306;28;20496;-74
2022/10/01 00:50:56;;;;;;;10.23;8.02;;;11.60;99.90;;;;;;5015533;28;20181;-74
2022/10/01 00:53:23;;;;;;;11.85;7.97;;;11.60;99.90;;;;;;5031291;28;20063;-74
2022/10/01 00:55:55;;;;;;;10.13;7.75;;;11.60;99.90;;;;;;5032563;28;20403;-74
2022/10/01 00:58:23;;;;;;;11.10;7.75;;;11.60;99.90;;;;;;5024839;28;20084;-74
2022/10/01 01:00:49;;;;;;;11.65;7.97;;;11.60;99.90;;;;;;5015127;28;20030;-73
2022/10/01 01:03:15;;;;;;;10.85;7.90;;;11.50;99.90;;;;;;5031808;28;20041;-73
2022/10/01 01:05:41;;;;;;;10.57;7.90;;;11.50;99.90;;;;;;5026224;28;20072;-74
2022/10/01 01:08:08;;;;;;;10.60;7.90;;;11.50;99.90;;;;;;5016767;28;20137;-73
2022/10/01 01:10:49;;;;;;;10.68;8.07;;;11.50;99.90;;;;;;5013553;28;20117;-74
2022/10/01 01:13:52;;;;;;;10.70;8.10;;;11.50;99.90;;;;;;5027746;28;20048;-73
2022/10/01 01:16:28;;;;;;;10.23;7.97;;;11.50;99.90;;;;;;4991956;28;20128;-74
2022/10/01 01:19:23;;;;;;;11.40;8.38;;;11.40;99.90;;;;;;5014633;28;20045;-74
2022/10/01 01:21:55;;;;;;;11.13;7.82;;;11.50;99.90;;;;;;5011163;28;20045;-75
2022/10/01 01:24:43;;;;;;;11.48;8.07;;;11.50;99.90;;;;;;5013449;28;20040;-74
2022/10/01 01:27:21;;;;;;;11.90;8.30;;;11.40;99.90;;;;;;5034342;28;20041;-74
2022/10/01 01:30:11;;;;;;;10.18;8.02;;;11.40;99.90;;;;;;5026076;28;20128;-74
2022/10/01 01:32:45;;;;;;;11.57;8.35;;;11.40;99.90;;;;;;5007828;28;20377;-74
2022/10/01 01:35:18;;;;;;;12.25;8.30;;;11.40;99.90;;;;;;5012393;28;20045;-74
2022/10/01 01:37:50;;;;;;;10.40;7.90;;;11.40;99.90;;;;;;5009125;28;20033;-74
2022/10/01 01:40:18;;;;;;;10.68;8.30;;;11.40;99.90;;;;;;5013924;28;20037;-74
2022/10/01 01:42:45;;;;;;;10.23;7.57;;;11.40;99.90;;;;;;5017520;28;20044;-74
2022/10/01 01:45:16;;;;;;;14.50;7.72;;;11.40;99.90;;;;;;5022320;28;20499;-75
2022/10/01 01:47:43;;;;;;;10.60;7.70;;;11.40;99.90;;;;;;5014298;28;20037;-75
2022/10/01 01:50:11;;;;;;;9.75;7.32;;;11.40;99.90;;;;;;5011976;28;20112;-74
2022/10/01 01:52:37;;;;;;;10.38;7.20;;;11.40;99.90;;;;;;4996340;28;20038;-74
2022/10/01 01:55:06;;;;;;;10.07;7.38;;;11.40;99.90;;;;;;5013410;28;20037;-74
2022/10/01 01:57:32;;;;;;;9.50;7.70;;;11.30;99.90;;;;;;5014512;28;20045;-75
2022/10/01 01:59:58;;;;;;;11.00;7.63;;;11.30;99.90;;;;;;5031544;28;20049;-75
2022/10/01 02:02:34;;;;;;;10.13;7.30;;;11.60;99.90;;;;;;5011559;28;20045;-72
2022/10/01 02:05:03;;;;;;;8.98;6.97;;;11.40;99.90;;;;;;5011371;28;20052;-74
2022/10/01 02:07:54;;;;;;;9.55;7.25;;;11.30;99.90;;;;;;5030387;28;20041;-74
2022/10/01 02:10:45;;;;;;;8.98;7.00;;;11.30;99.90;;;;;;5012787;28;20414;-74
2022/10/01 02:13:28;;;;;;;9.75;7.00;;;11.30;99.90;;;;;;5013649;28;20435;-76
2022/10/01 02:16:00;;;;;;;9.18;6.60;;;11.30;99.90;;;;;;5020623;28;20037;-74
2022/10/01 02:18:56;;;;;;;9.77;6.80;;;11.30;99.90;;;;;;5013039;28;20095;-74
2022/10/01 02:21:29;;;;;;;10.73;7.00;;;11.30;99.90;;;;;;5029390;28;20130;-74
2022/10/01 02:24:10;;;;;;;9.75;6.85;;;11.30;99.90;;;;;;5013481;28;20510;-74
2022/10/01 02:26:37;;;;;;;9.85;6.70;;;11.30;99.90;;;;;;5011033;28;20049;-75
2022/10/01 02:29:07;;;;;;;9.15;6.50;;;11.30;99.90;;;;;;5013675;28;20053;-75
2022/10/01 02:31:34;;;;;;;8.43;6.45;;;11.30;99.90;;;;;;4992585;28;20033;-74
2022/10/01 02:34:01;;;;;;;10.90;6.43;;;11.30;99.90;;;;;;5012902;28;20052;-75
2022/10/01 02:36:29;;;;;;;8.23;5.88;;;11.30;99.90;;;;;;5046590;28;20114;-75
2022/10/01 02:38:56;;;;;;;7.85;5.50;;;11.30;99.90;;;;;;5031322;28;20168;-74
2022/10/01 02:41:28;;;;;;;8.90;6.43;;;11.30;99.90;;;;;;5013761;28;20482;-74
2022/10/01 02:44:01;;;;;;;10.07;6.10;;;11.30;99.90;;;;;;5013204;28;20065;-74
2022/10/01 02:46:35;;;;;;;7.88;5.78;;;11.30;99.90;;;;;;5012655;28;20068;-74
2022/10/01 02:49:03;;;;;;;6.90;5.60;;;11.30;99.90;;;;;;5011963;28;20120;-75
2022/10/01 02:51:53;;;;;;;6.57;5.30;;;11.40;99.90;;;;;;5008964;28;20041;-74
2022/10/01 02:54:29;;;;;;;6.63;4.95;;;11.40;99.90;;;;;;5011928;28;20565;-75
2022/10/01 02:59:41;;;;;;;6.55;5.35;;;11.40;99.90;;;;;;5022321;28;20102;-74
2022/10/01 03:02:06;;;;;;;6.80;4.95;;;11.40;99.90;;;;;;5030179;28;20120;-74
2022/10/01 03:04:32;;;;;;;6.65;4.68;;;11.30;99.90;;;;;;5021562;28;20037;-74
2022/10/01 03:07:02;;;;;;;7.30;4.85;;;11.30;99.90;;;;;;5020194;28;20030;-75
2022/10/01 03:09:33;;;;;;;6.50;4.88;;;11.40;99.90;;;;;;5012190;28;20034;-74
2022/10/01 03:12:00;;;;;;;6.68;4.72;;;11.30;99.90;;;;;;5012898;28;20044;-74
2022/10/01 03:14:26;;;;;;;6.35;4.93;;;11.30;99.90;;;;;;5011800;28;20034;-75
2022/10/01 03:16:52;;;;;;;5.97;4.10;;;11.30;99.90;;;;;;5013079;28;20045;-74
2022/10/01 03:19:18;;;;;;;5.82;4.30;;;11.30;99.90;;;;;;5024063;28;20056;-75
2022/10/01 03:21:44;;;;;;;7.35;4.65;;;11.30;99.90;;;;;;5013466;28;20037;-74
2022/10/01 03:24:10;;;;;;;7.18;4.40;;;11.30;99.90;;;;;;5017715;28;20403;-75
2022/10/01 03:26:36;;;;;;;5.85;4.45;;;11.40;99.90;;;;;;5058727;28;20047;-74
2022/10/01 03:29:02;;;;;;;6.70;4.38;;;11.40;99.90;;;;;;5054588;28;20514;-74
2022/10/01 03:31:28;;;;;;;5.85;3.75;;;11.30;99.90;;;;;;5048162;28;20033;-74
2022/10/01 03:33:54;;;;;;;5.88;4.30;;;11.40;99.90;;;;;;5066436;28;20078;-74
2022/10/01 03:36:19;;;;;;;5.47;3.60;;;11.60;99.90;;;;;;5050462;28;20151;-74
2022/10/01 03:38:45;;;;;;;7.45;4.25;;;11.30;99.90;;;;;;5042845;28;20044;-74
2022/10/01 03:41:10;;;;;;;4.43;3.42;;;11.40;99.90;;;;;;5055035;28;20080;-74
2022/10/01 03:43:36;;;;;;;6.47;4.30;;;11.30;99.90;;;;;;5048998;28;20037;-74
2022/10/01 03:46:01;;;;;;;6.32;3.90;;;11.30;99.90;;;;;;5047511;28;20041;-74
2022/10/01 03:48:28;;;;;;;6.20;4.13;;;11.30;99.90;;;;;;5047855;28;20041;-74
2022/10/01 03:50:58;;;;;;;6.45;4.15;;;11.30;99.90;;;;;;5043114;28;20033;-74
2022/10/01 03:53:26;;;;;;;5.35;3.90;;;11.30;99.90;;;;;;5058786;28;20102;-74
2022/10/01 03:55:52;;;;;;;5.38;3.58;;;11.30;99.90;;;;;;5048795;28;20059;-74
2022/10/01 03:58:18;;;;;;;5.47;3.75;;;11.30;99.90;;;;;;5049115;28;20057;-74
2022/10/01 04:00:45;;;;;;;5.60;3.83;;;11.30;99.90;;;;;;5047270;28;20386;-74
2022/10/01 04:03:11;;;;;;;4.72;3.40;;;11.30;99.90;;;;;;5048915;28;20049;-74
2022/10/01 04:05:37;;;;;;;4.82;3.60;;;11.30;99.90;;;;;;5049896;28;20067;-74
2022/10/01 04:08:03;;;;;;;4.45;3.50;;;11.40;99.90;;;;;;5048973;28;20045;-74
2022/10/01 04:10:28;;;;;;;4.22;3.10;;;11.40;99.90;;;;;;5043808;28;20120;-74
2022/10/01 04:12:54;;;;;;;5.60;3.35;;;11.40;99.90;;;;;;5046603;28;20612;-74
2022/10/01 04:15:21;;;;;;;4.05;3.08;;;11.40;99.90;;;;;;5047460;28;20090;-74
2022/10/01 04:17:47;;;;;;;3.90;2.80;;;11.40;99.90;;;;;;5051580;28;20037;-74
2022/10/01 04:20:13;;;;;;;4.85;3.30;;;11.40;99.90;;;;;;5048515;28;20048;-74
2022/10/01 04:22:39;;;;;;;4.25;3.22;;;11.40;99.90;;;;;;5065370;28;20037;-74
2022/10/01 04:25:09;;;;;;;5.18;2.95;;;11.40;99.90;;;;;;5049762;28;20119;-75
2022/10/01 04:27:54;;;;;;;3.00;2.42;;;11.40;99.90;;;;;;5064733;28;20040;-74
2022/10/01 04:30:20;;;;;;;4.35;2.83;;;11.40;99.90;;;;;;5053062;28;20522;-74
2022/10/01 04:32:45;;;;;;;4.68;3.10;;;11.40;99.90;;;;;;5052148;28;20037;-74
2022/10/01 04:35:11;;;;;;;3.13;2.63;;;11.40;99.90;;;;;;5052158;28;20132;-74
2022/10/01 04:37:37;;;;;;;5.03;2.50;;;11.40;99.90;;;;;;5057809;28;20075;-74
2022/10/01 04:40:04;;;;;;;4.28;2.40;;;11.40;99.90;;;;;;5046791;28;20048;-74
2022/10/01 04:42:29;;;;;;;3.60;2.60;;;11.40;99.90;;;;;;5044070;28;20056;-74
2022/10/01 04:44:56;;;;;;;3.13;2.35;;;11.40;99.90;;;;;;5049623;28;20426;-74
2022/10/01 04:47:21;;;;;;;3.97;2.20;;;11.50;99.90;;;;;;5051815;28;20098;-74
2022/10/01 04:49:47;;;;;;;2.90;2.08;;;11.50;99.90;;;;;;5051569;28;20041;-74
2022/10/01 04:52:13;;;;;;;2.90;1.92;;;11.40;99.90;;;;;;5052130;28;20041;-74
2022/10/01 04:54:38;;;;;;;2.40;2.10;;;11.50;99.90;;;;;;5057400;28;20116;-74
2022/10/01 04:57:04;;;;;;;3.40;2.10;;;11.50;99.90;;;;;;5050384;28;20100;-74
2022/10/01 04:59:30;;;;;;;2.60;2.25;;;11.50;99.90;;;;;;5050879;28;20095;-75
2022/10/01 05:01:56;;;;;;;4.03;2.33;;;11.50;99.90;;;;;;5064754;28;20102;-74
2022/10/01 05:04:22;;;;;;;3.13;2.22;;;11.60;99.90;;;;;;5051591;28;20494;-74
2022/10/01 05:06:47;;;;;;;2.83;2.45;;;11.60;99.90;;;;;;5051508;28;20033;-74
2022/10/01 05:09:13;;;;;;;3.80;2.50;;;11.60;99.90;;;;;;5054218;28;20068;-75
2022/10/01 05:11:38;;;;;;;3.92;2.42;;;11.60;99.90;;;;;;5049836;28;20036;-75
2022/10/01 05:14:04;;;;;;;3.28;2.50;;;11.60;99.90;;;;;;5051361;28;20037;-75
2022/10/01 05:16:30;;;;;;;3.70;2.78;;;11.60;99.90;;;;;;5053643;28;20505;-74
2022/10/01 05:18:55;;;;;;;3.22;2.70;;;11.70;99.90;;;;;;5066178;28;20047;-74
2022/10/01 05:21:21;;;;;;;3.88;2.70;;;11.70;99.90;;;;;;5052226;28;20043;-75
2022/10/01 05:23:46;;;;;;;3.85;2.85;;;11.70;99.90;;;;;;5051492;28;20041;-74
2022/10/01 05:26:12;;;;;;;6.65;3.13;;;11.70;99.90;;;;;;5044223;28;20041;-75
2022/10/01 05:28:43;;;;;;;7.80;3.03;;;11.70;99.90;;;;;;5048713;28;20048;-75
2022/10/01 05:31:10;;;;;;;4.47;3.10;;;11.70;99.90;;;;;;5034975;28;20041;-75
2022/10/01 05:33:36;;;;;;;5.60;3.22;;;11.70;99.90;;;;;;5054512;28;20059;-75
2022/10/01 05:36:05;;;;;;;9.20;3.85;;;11.80;99.90;;;;;;5050441;28;20049;-75
2022/10/01 05:38:35;;;;;;;4.90;3.95;;;11.80;99.90;;;;;;5049108;28;20044;-74
2022/10/01 05:41:02;;;;;;;6.47;4.13;;;11.90;99.90;;;;;;5049361;28;20483;-75
2022/10/01 05:43:27;;;;;;;5.80;4.07;;;11.90;99.90;;;;;;5048954;28;20437;-75
2022/10/01 05:45:53;;;;;;;8.68;3.80;;;11.90;99.90;;;;;;5049695;28;20029;-75
2022/10/01 05:48:19;;;;;;;6.78;4.50;;;11.90;99.90;;;;;;5054890;28;20114;-75
2022/10/01 05:50:45;;;;;;;5.30;3.90;;;11.90;99.90;;;;;;5050148;28;20040;-75
2022/10/01 05:53:12;;;;;;;6.45;4.22;;;11.90;99.90;;;;;;5050671;28;20045;-75
2022/10/01 05:55:38;;;;;;;5.65;4.45;;;11.90;99.90;;;;;;5050653;28;20402;-75
2022/10/01 05:58:06;;;;;;;7.05;4.93;;;12.00;99.90;;;;;;5050757;28;20043;-75
2022/10/01 06:00:33;;;;;;;7.28;4.38;;;12.00;99.90;;;;;;5049658;28;20033;-75
2022/10/01 06:03:01;;;;;;;7.22;4.93;;;12.00;99.90;;;;;;5050592;28;20048;-75
2022/10/01 06:05:28;;;;;;;6.57;5.30;;;12.00;99.90;;;;;;5050536;28;20468;-75
2022/10/01 06:07:53;;;;;;;7.38;5.30;;;12.00;99.90;;;;;;5049896;28;20527;-75
2022/10/01 06:10:20;;;;;;;9.80;5.80;;;12.00;99.90;;;;;;5047027;28;20049;-75
2022/10/01 06:12:47;;;;;;;7.72;5.40;;;12.00;99.90;;;;;;5049400;28;20036;-75
2022/10/01 06:15:13;;;;;;;8.25;5.72;;;12.10;99.90;;;;;;5033298;28;20127;-75
2022/10/01 06:17:43;;;;;;;6.45;5.50;;;12.00;99.90;;;;;;5066992;28;20540;-75
2022/10/01 06:20:15;;;;;;;8.95;6.30;;;12.10;99.90;;;;;;5050296;28;20376;-75
2022/10/01 06:22:42;;;;;;;8.35;6.45;;;12.10;99.90;;;;;;5059799;28;20090;-75
2022/10/01 06:25:10;;;;;;;9.05;6.18;;;12.10;99.90;;;;;;5047762;28;20045;-75
2022/10/01 06:27:35;;;;;;;9.23;6.35;;;12.20;99.90;;;;;;5049572;28;20041;-73
2022/10/01 06:30:01;;;;;;;9.20;6.95;;;12.20;99.90;;;;;;5049704;28;20110;-74
2022/10/01 06:32:30;;;;;;;10.85;6.55;;;12.30;99.90;;;;;;5046864;28;20196;-77
2022/10/01 06:34:55;;;;;;;8.70;6.53;;;12.30;99.90;;;;;;5047254;28;20041;-77
2022/10/01 06:37:21;;;;;;;6.90;6.13;;;12.30;99.90;;;;;;5042125;28;20361;-77
2022/10/01 06:39:47;;;;;;;9.20;6.18;;;12.30;99.90;;;;;;5047857;28;20041;-77
2022/10/01 06:42:12;;;;;;;8.25;6.50;;;12.40;99.90;;;;;;5046292;28;20090;-77
2022/10/01 06:44:38;;;;;;;8.85;6.78;;;12.30;99.90;;;;;;5045899;28;20037;-77
2022/10/01 06:47:03;;;;;;;9.18;6.90;;;12.30;99.90;;;;;;5049196;28;20045;-77
2022/10/01 06:49:29;;;;;;;9.93;6.60;;;12.30;99.90;;;;;;5059763;28;20115;-77
2022/10/01 06:54:39;;;;;;;9.40;6.70;;;12.30;99.90;;;;;;5048759;28;20095;-76
2022/10/01 06:57:04;;;;;;;8.23;5.93;;;12.40;99.90;;;;;;5049259;28;20045;-76
2022/10/01 06:59:35;;;;;;;11.90;6.78;;;12.40;99.90;;;;;;5048246;28;20045;-77
2022/10/01 07:02:01;;;;;;;9.45;6.05;;;12.40;99.90;;;;;;5049451;28;20029;-77
2022/10/01 07:04:30;;;;;;;9.30;6.65;;;12.50;99.90;;;;;;5047609;28;20043;-76
2022/10/01 07:06:56;;;;;;;8.32;6.68;;;12.50;99.90;;;;;;5043001;28;20494;-76
2022/10/01 07:09:25;;;;;;;10.30;6.75;;;12.50;99.90;;;;;;5045100;28;20542;-76
2022/10/01 07:11:56;;;;;;;11.43;6.18;;;12.60;99.90;;;;;;5062090;28;20086;-77
2022/10/01 07:14:21;;;;;;;11.50;6.55;;;12.60;99.90;;;;;;5047489;28;20051;-78
2022/10/01 07:16:47;;;;;;;11.38;6.78;;;12.60;99.90;;;;;;5048510;28;20119;-77
2022/10/01 07:19:12;;;;;;;9.90;6.95;;;12.70;99.90;;;;;;5047622;28;20040;-76
2022/10/01 07:21:38;;;;;;;11.82;6.78;;;12.60;99.90;;;;;;5044656;28;20071;-77
2022/10/01 07:24:04;;;;;;;10.90;6.70;;;12.70;99.90;;;;;;5042868;28;20081;-77
2022/10/01 07:26:29;;;;;;;11.50;6.60;;;12.70;99.90;;;;;;5012885;28;20518;-77
2022/10/01 07:28:55;;;;;;;9.25;6.28;;;12.80;99.90;;;;;;5014175;28;20038;-77
2022/10/01 07:31:22;;;;;;;7.57;5.78;;;12.80;99.90;;;;;;5029731;28;20041;-77
2022/10/01 07:33:48;;;;;;;10.80;6.05;;;12.80;99.90;;;;;;5000987;28;20033;-78
2022/10/01 07:36:14;;;;;;;8.27;5.60;;;12.80;99.90;;;;;;5011513;28;20151;-77
2022/10/01 07:38:42;;;;;;;9.57;5.65;;;12.80;99.90;;;;;;5015425;28;20554;-77
2022/10/01 07:41:08;;;;;;;11.00;6.38;;;12.90;99.90;;;;;;4995309;28;20530;-77
2022/10/01 07:43:35;;;;;;;9.35;5.97;;;12.90;99.90;;;;;;5012275;28;20041;-77
2022/10/01 07:46:03;;;;;;;9.68;5.78;;;12.90;99.90;;;;;;5008005;28;20052;-78
2022/10/01 07:48:29;;;;;;;8.70;5.05;;;13.10;99.90;;;;;;5008378;28;20104;-78
2022/10/01 07:50:56;;;;;;;12.27;4.78;;;13.10;99.90;;;;;;5010183;28;20397;-79
2022/10/01 07:53:23;;;;;;;8.40;4.68;;;13.10;99.90;;;;;;5014822;28;20135;-78
2022/10/01 07:55:48;;;;;;;10.43;5.10;;;13.20;99.90;;;;;;5012060;28;20503;-78
2022/10/01 07:58:14;;;;;;;15.18;5.07;;;13.30;99.90;;;;;;5001314;28;20037;-78
2022/10/01 08:00:39;;;;;;;9.95;4.93;;;13.30;99.90;;;;;;5011517;28;20520;-76
2022/10/01 08:03:05;;;;;;;11.82;4.43;;;13.40;99.90;;;;;;5002171;28;20038;-78
2022/10/01 08:05:34;;;;;;;10.02;4.70;;;13.40;99.90;;;;;;5014396;28;20049;-77
2022/10/01 08:08:05;;;;;;;10.30;4.50;;;13.50;99.90;;;;;;5015916;28;20060;-77
2022/10/01 08:10:35;;;;;;;11.00;4.38;;;13.60;99.90;;;;;;5014395;28;20103;-76
2022/10/01 08:13:13;;;;;;;10.52;3.88;;;13.70;99.90;;;;;;5033697;28;20171;-77
2022/10/01 08:15:40;;;;;;;11.73;4.30;;;13.70;99.90;;;;;;5029065;28;20403;-77
2022/10/01 08:18:06;;;;;;;7.75;3.60;;;13.80;99.90;;;;;;5015227;28;20052;-76
2022/10/01 08:20:32;;;;;;;11.73;3.90;;;13.80;99.90;;;;;;5012167;28;20399;-76
2022/10/01 08:23:06;;;;;;;8.25;3.70;;;13.90;99.90;;;;;;5030020;28;20033;-78
2022/10/01 08:25:32;;;;;;;12.30;3.78;;;13.90;99.90;;;;;;5041199;28;20056;-77
2022/10/01 08:27:59;;;;;;;8.63;3.67;;;14.10;99.90;;;;;;5050508;28;20041;-77
2022/10/01 08:30:25;;;;;;;7.70;3.28;;;14.10;99.90;;;;;;5050110;28;20084;-78
2022/10/01 08:32:58;;;;;;;8.57;3.53;;;14.20;99.90;;;;;;5052861;28;20037;-77
2022/10/01 08:35:26;;;;;;;7.65;3.50;;;14.20;99.90;;;;;;5049788;28;20123;-77
2022/10/01 08:37:55;;;;;;;11.73;3.53;;;14.30;99.90;;;;;;5050042;28;20045;-77
2022/10/01 08:40:22;;;;;;;10.63;3.53;;;14.30;99.90;;;;;;5067780;28;20098;-77
2022/10/01 08:43:06;;;;;;;7.32;3.33;;;14.20;99.90;;;;;;5052074;28;20036;-77
2022/10/01 08:45:40;;;;;;;10.65;3.60;;;14.40;99.90;;;;;;5044746;28;20078;-77
2022/10/01 08:48:05;;;;;;;11.48;3.30;;;14.40;99.90;;;;;;5051704;28;20526;-76
2022/10/01 08:50:47;;;;;;;11.63;3.50;;;14.50;99.90;;;;;;5052297;28;20049;-76
2022/10/01 08:53:29;;;;;;;12.48;3.25;;;14.60;99.90;;;;;;5052807;28;20102;-77
2022/10/01 08:55:56;;;;;;;9.15;2.67;;;14.70;99.90;;;;;;5051108;28;20047;-76
2022/10/01 08:58:28;;;;;;;11.15;2.13;;;14.80;99.90;;;;;;5062530;28;20315;-77
2022/10/01 09:00:53;;;;;;;;;;;14.80;99.90;;;;;;5052158;28;20059;-76
2022/10/01 09:03:19;;;;;;;7.43;1.98;;;14.70;99.90;;;;;;5051151;28;20301;-76
2022/10/01 09:06:09;;;;;;;8.88;2.03;;;14.70;99.90;;;;;;5050733;28;20037;-77
2022/10/01 09:09:12;;;;;;;7.85;2.20;;;14.60;99.90;;;;;;5049939;28;20362;-76
2022/10/01 09:12:04;;;;;;;6.38;1.80;;;14.50;99.90;;;;;;5044266;28;20040;-76
2022/10/01 09:14:38;;;;;;;10.68;3.33;;;14.50;99.90;;;;;;5067761;28;20037;-76
2022/10/01 09:17:20;;;;;;;9.75;2.10;;;14.60;99.90;;;;;;5052001;28;20041;-76
2022/10/01 09:20:03;;;;;;;8.98;2.47;;;14.60;99.90;;;;;;5045533;28;20055;-75
2022/10/01 09:22:50;;;;;;;5.50;1.60;;;14.70;99.90;;;;;;5051450;28;20103;-76
2022/10/01 09:27:43;;;;;;;6.43;1.50;;;14.70;99.90;;;;;;5048390;28;20037;-64
2022/10/01 09:30:18;;;;;;;5.50;1.60;;;14.70;99.90;;;;;;5047947;28;20041;-64
2022/10/01 09:33:12;;;;;;;6.68;1.20;;;14.60;99.90;;;;;;5067299;28;20268;-62
2022/10/01 09:36:16;;;;;;;5.10;1.45;;;14.60;99.90;;;;;;5045562;28;20032;-63
2022/10/01 09:39:07;;;;;;;4.43;1.30;;;14.60;99.90;;;;;;5044596;28;20396;-63
2022/10/01 09:41:33;;;;;;;4.88;1.38;;;14.70;99.90;;;;;;5051443;28;20108;-63
2022/10/01 09:43:59;;;;;;;3.80;1.10;;;14.70;99.90;;;;;;5051849;28;20120;-62
2022/10/01 09:46:25;;;;;;;4.40;1.20;;;14.70;99.90;;;;;;5049411;28;20489;-63
2022/10/01 09:48:51;;;;;;;4.13;1.27;;;14.80;99.90;;;;;;5049565;28;20041;-62
2022/10/01 09:51:26;;;;;;;6.32;1.80;;;14.80;99.90;;;;;;5049886;28;20412;-62
2022/10/01 09:54:11;;;;;;;6.80;1.60;;;15.00;99.90;;;;;;5049215;28;20752;-62
2022/10/01 09:57:12;;;;;;;7.32;1.73;;;15.10;99.90;;;;;;5050587;28;20033;-62
2022/10/01 09:59:56;;;;;;;7.50;2.08;;;15.10;99.90;;;;;;5017405;28;20052;-67
2022/10/01 10:02:23;;;;;;;8.20;2.13;;;15.10;99.90;;;;;;5050100;28;20465;-62
2022/10/01 10:05:04;;;;;;;7.85;2.30;;;15.00;99.90;;;;;;5051716;28;20029;-62
2022/10/01 10:07:34;;;;;;;8.18;2.30;;;15.00;99.90;;;;;;5049964;28;20033;-63
2022/10/01 10:10:19;;;;;;;10.05;2.45;;;15.00;99.90;;;;;;5046897;28;20640;-62
2022/10/01 10:12:46;;;;;;;8.38;2.30;;;15.10;99.90;;;;;;5045647;28;20501;-62
2022/10/01 10:15:21;;;;;;;9.95;2.70;;;15.10;99.90;;;;;;5048898;28;20037;-65
2022/10/01 10:17:50;;;;;;;11.38;2.40;;;15.20;99.90;;;;;;5047615;28;20481;-66
2022/10/01 10:20:38;;;;;;;12.32;2.58;;;15.30;99.90;;;;;;5049584;28;20072;-62
2022/10/01 10:23:14;;;;;;;10.45;2.70;;;15.40;99.90;;;;;;5050546;28;20071;-62
2022/10/01 10:25:40;;;;;;;14.88;2.75;;;15.50;99.90;;;;;;5047129;28;20539;-62
2022/10/01 10:28:19;;;;;;;13.90;3.33;;;15.50;99.90;;;;;;5030798;28;20124;-64
2022/10/01 10:30:45;;;;;;;10.00;2.90;;;15.50;99.90;;;;;;5012515;28;20045;-62
2022/10/01 10:33:12;;;;;;;11.35;2.90;;;15.50;99.90;;;;;;5013168;28;20045;-62
2022/10/01 10:35:39;;;;;;;12.90;2.60;;;15.50;99.90;;;;;;5030286;28;20048;-62
2022/10/01 10:38:05;;;;;;;9.35;2.60;;;15.40;99.90;;;;;;5030691;28;20038;-62
2022/10/01 10:40:39;;;;;;;8.65;2.38;;;15.40;99.90;;;;;;5027839;28;20041;-67
2022/10/01 10:43:14;;;;;;;11.80;2.42;;;15.40;99.90;;;;;;5028678;28;20037;-67
2022/10/01 10:45:45;;;;;;;11.73;2.90;;;15.40;99.90;;;;;;5028066;28;20029;-63
2022/10/01 10:48:16;;;;;;;13.23;2.60;;;15.40;99.90;;;;;;5031630;28;20037;-63
2022/10/01 10:50:44;;;;;;;10.18;2.58;;;15.30;99.90;;;;;;5010784;28;20116;-66
2022/10/01 10:53:17;;;;;;;8.70;2.08;;;15.20;99.90;;;;;;5028471;28;20078;-65
2022/10/01 10:55:54;;;;;;;8.02;2.00;;;15.20;99.90;;;;;;4994555;28;20426;-63
2022/10/01 10:58:24;;;;;;;10.85;2.38;;;15.10;99.90;;;;;;5026505;28;20480;-62
2022/10/01 11:00:51;;;;;;;7.05;2.05;;;15.10;99.90;;;;;;5026972;28;20509;-63
2022/10/01 11:03:21;;;;;;;5.40;1.65;;;15.20;99.90;;;;;;5029618;28;20042;-62
2022/10/01 11:05:50;;;;;;;9.02;1.65;;;15.30;99.90;;;;;;5009942;28;20033;-62
2022/10/01 11:08:26;;;;;;;8.02;1.70;;;15.30;99.90;;;;;;5008810;28;20072;-63
2022/10/01 11:11:11;;;;;;;5.15;1.48;;;15.20;99.90;;;;;;5026921;28;20080;-63
2022/10/01 11:14:10;;;;;;;7.72;1.85;;;15.10;99.90;;;;;;5009712;28;20033;-64
2022/10/01 11:16:50;;;;;;;7.57;1.70;;;15.00;99.90;;;;;;5026558;28;20076;-63
2022/10/01 11:19:54;;;;;;;6.63;1.50;;;14.80;99.90;;;;;;5008071;28;20046;-65
2022/10/01 11:22:56;;;;;;;7.63;1.75;;;14.70;99.90;;;;;;5028187;28;20041;-63
2022/10/01 11:25:37;;;;;;;8.90;1.73;;;14.50;99.90;;;;;;5009716;28;20584;-63
2022/10/01 11:28:03;;;;;;;6.73;2.00;;;14.40;99.90;;;;;;5026955;28;20132;-64
2022/10/01 11:30:35;;;;;;;7.47;2.00;;;14.30;99.90;;;;;;5028983;28;20124;-64
2022/10/01 11:33:17;;;;;;;8.07;2.35;;;14.30;99.90;;;;;;5028963;28;20040;-64
2022/10/01 11:35:59;;;;;;;8.87;1.57;;;14.20;99.90;;;;;;5023879;28;20037;-64
2022/10/01 11:38:52;;;;;;;8.15;1.70;;;14.10;99.90;;;;;;5013385;28;20037;-64
2022/10/01 11:41:32;;;;;;;7.38;1.80;;;14.10;99.90;;;;;;5033643;28;20080;-62
2022/10/01 11:44:12;;;;;;;8.55;1.98;;;14.10;99.90;;;;;;5013198;28;20069;-62
2022/10/01 11:46:57;;;;;;;6.88;1.83;;;14.10;99.90;;;;;;5030659;28;20516;-63
2022/10/01 11:50:02;;;;;;;9.85;1.70;;;14.30;99.90;;;;;;5032174;28;20567;-67
2022/10/01 11:52:46;;;;;;;7.55;2.00;;;14.50;99.90;;;;;;4993475;28;20060;-66
2022/10/01 12:01:23;;;;;;;15.13;2.28;;;15.00;99.90;;;;;;5019923;28;20049;-64
2022/10/01 12:03:52;;;;;;;13.07;2.83;;;15.30;99.90;;;;;;5018188;28;20137;-62
2022/10/01 12:06:31;;;;;;;12.98;2.45;;;15.50;99.90;;;;;;5013106;28;20064;-65
2022/10/01 12:09:55;;;;;;;11.50;2.35;;;15.60;99.90;;;;;;5032367;28;20037;-63
2022/10/01 12:13:06;;;;;;;10.57;2.28;;;15.70;99.90;;;;;;4897570;29;20060;-63
2022/10/01 12:15:53;;;;;;;12.23;2.17;;;15.90;99.90;;;;;;4898906;29;20076;-67
2022/10/01 12:18:28;;;;;;;8.60;2.10;;;15.90;99.90;;;;;;5008208;28;20041;-63
2022/10/01 12:20:56;;;;;;;12.23;2.35;;;16.00;99.90;;;;;;5032977;28;20034;-65
2022/10/01 12:23:27;;;;;;;8.82;2.15;;;16.10;99.90;;;;;;5033069;28;20715;-63
2022/10/01 12:26:10;;;;;;;11.88;2.40;;;16.10;99.90;;;;;;5021017;28;20037;-63
2022/10/01 12:28:53;;;;;;;9.40;2.40;;;16.10;99.90;;;;;;5043898;28;20045;-66
2022/10/01 12:31:44;;;;;;;11.57;2.20;;;16.20;99.90;;;;;;5052569;28;20045;-63
2022/10/01 12:34:21;;;;;;;11.20;2.70;;;16.10;99.90;;;;;;5049576;28;20083;-63
2022/10/01 12:37:09;;;;;;;11.00;2.72;;;16.00;99.90;;;;;;5049124;28;20060;-65
2022/10/01 12:39:56;;;;;;;11.70;2.10;;;15.90;99.90;;;;;;4997009;28;20045;-66
2022/10/01 12:42:52;;;;;;;11.63;2.53;;;15.80;99.90;;;;;;5051578;28;20029;-63
2022/10/01 12:45:52;;;;;;;14.43;2.90;;;15.70;99.90;;;;;;5052403;28;20047;-63
2022/10/01 12:48:33;;;;;;;18.33;3.15;;;15.70;99.90;;;;;;5052031;28;20047;-64
2022/10/01 12:51:27;;;;;;;15.48;2.95;;;15.60;99.90;;;;;;5067418;28;20068;-63
2022/10/01 12:54:31;;;;;;;14.10;3.00;;;15.40;99.90;;;;;;5047540;28;20037;-63
2022/10/01 12:57:13;;;;;;;14.35;2.70;;;15.40;99.90;;;;;;5038405;28;20079;-63
2022/10/01 12:59:58;;;;;;;15.10;3.00;;;15.50;99.90;;;;;;5044768;28;20076;-66
2022/10/01 13:02:30;;;;;;;12.95;2.88;;;15.60;99.90;;;;;;5051634;28;20040;-64
2022/10/01 13:05:24;;;;;;;11.60;3.65;;;15.70;99.90;;;;;;5050864;28;20045;-65
2022/10/01 13:07:59;;;;;;;11.35;2.35;;;15.90;99.90;;;;;;5008191;28;20095;-63
2022/10/01 13:10:42;;;;;;;12.20;2.40;;;16.00;99.90;;;;;;5046432;28;20041;-64
2022/10/01 13:13:26;;;;;;;12.57;2.60;;;16.10;99.90;;;;;;5051821;28;20041;-65
2022/10/01 13:16:01;;;;;;;12.57;2.58;;;16.30;99.90;;;;;;5051162;28;20392;-66
2022/10/01 13:18:51;;;;;;;11.35;2.05;;;16.30;99.90;;;;;;5051932;28;20086;-63
2022/10/01 13:21:31;;;;;;;18.42;2.85;;;16.40;99.90;;;;;;5051517;28;20100;-63
2022/10/01 13:24:31;;;;;;;9.90;2.42;;;16.40;99.90;;;;;;5052048;28;20032;-63